This is the latest recevied weather packets stored in our database for station/object OH2HCY-3. If no packets are shown the sender has not sent any weather packets the latest 1 day(s).
| Time | Temp. | Humidity | Pressure | Rain* | Wind** | Luminosity | Snow |
|---|---|---|---|---|---|---|---|
| 1778010046 | 5° C | 54% | 1008.3 hPa | - | 1.79 m/s, 178° | - | - |
| 1778009006 | 5° C | 55% | 1008.3 hPa | - | 1.79 m/s, 193° | - | - |
| 1778007896 | 5° C | 54% | 1008.1 hPa | - | 1.79 m/s, 183° | - | - |
| 1778006824 | 5.56° C | 52% | 1008 hPa | - | 1.79 m/s, 181° | - | - |
| 1778006823 | 5.56° C | 52% | 1008 hPa | - | 1.79 m/s, 181° | - | - |
| 1778005711 | 5.56° C | 50% | 1007.8 hPa | - | 2.24 m/s, 174° | - | - |
| 1778004566 | 6.11° C | 53% | 1007.5 hPa | - | 1.79 m/s, 190° | - | - |
| 1778003440 | 6.67° C | 55% | 1007.3 hPa | - | 1.79 m/s, 200° | - | - |
| 1778002305 | 6.67° C | 55% | 1007.1 hPa | - | 2.68 m/s, 212° | - | - |
| 1778001115 | 7.22° C | 54% | 1007 hPa | - | 2.24 m/s, 209° | - | - |
| 1778000010 | 7.78° C | 51% | 1006.9 hPa | - | 1.79 m/s, 216° | - | - |
| 1777998936 | 7.78° C | 46% | 1006.9 hPa | - | 2.24 m/s, 222° | - | - |
| 1777997965 | 8.89° C | 40% | 1006.8 hPa | - | 1.79 m/s, 230° | - | - |
| 1777996805 | 8.89° C | 38% | 1006.7 hPa | - | 2.24 m/s, 230° | - | - |
| 1777995830 | 9.44° C | 37% | 1006.6 hPa | - | 2.68 m/s, 229° | - | - |
| 1777994790 | 9.44° C | 40% | 1006.5 hPa | - | 2.68 m/s, 220° | - | - |
| 1777993660 | 10° C | 37% | 1006.4 hPa | - | 2.24 m/s, 242° | - | - |
| 1777992695 | 9.44° C | 37% | 1006.4 hPa | - | 3.13 m/s, 237° | - | - |
| 1777991673 | 10° C | 37% | 1006.3 hPa | - | 2.24 m/s, 236° | - | - |
| 1777990525 | 10° C | 35% | 1006.1 hPa | - | 3.13 m/s, 222° | - | - |
| 1777989430 | 10.56° C | 36% | 1005.9 hPa | - | 2.24 m/s, 223° | - | - |
| 1777988379 | 11.11° C | 34% | 1005.9 hPa | - | 2.24 m/s, 235° | - | - |
| 1777987422 | 10.56° C | 35% | 1005.7 hPa | - | 1.79 m/s, 234° | - | - |
| 1777987420 | 10.56° C | 35% | 1005.7 hPa | - | 1.79 m/s, 234° | - | - |
| 1777986443 | 11.11° C | 34% | 1005.7 hPa | - | 1.79 m/s, 228° | - | - |
* Rain since midnight (hover to see other rain measurements)
** Current wind speed in m/s (hover to see current wind gust speed)